Time;durP1;ratioP1;P1;durP2;ratioP2;P2;SDS_P1;SDS_P2;PMS_P1;PMS_P2;Temp;Humidity;BMP_temperature;BMP_pressure;BME280_temperature;BME280_humidity;BME280_pressure;Samples;Min_cycle;Max_cycle;Signal;HPM_P1;HPM_P2
2021/06/01 00:00:03;;;;;;;4.93;3.30;;;;;;;12.86;60.52;100661.78;5012404;28;20054;-63
2021/06/01 00:02:30;;;;;;;5.43;3.25;;;;;;;12.82;61.01;100662.78;5012457;28;20054;-63
2021/06/01 00:04:57;;;;;;;5.25;3.50;;;;;;;12.78;60.41;100657.81;5014104;28;20065;-63
2021/06/01 00:07:24;;;;;;;9.80;4.50;;;;;;;12.76;60.65;100662.09;5029883;28;20053;-63
2021/06/01 00:09:51;;;;;;;6.07;3.22;;;;;;;12.78;60.61;100662.59;5034749;28;21830;-63
2021/06/01 00:12:19;;;;;;;4.00;3.17;;;;;;;12.70;60.99;100664.19;5055135;28;20059;-63
2021/06/01 00:14:46;;;;;;;5.22;3.50;;;;;;;12.64;61.19;100662.75;5055597;28;20067;-63
2021/06/01 00:17:13;;;;;;;4.90;3.60;;;;;;;12.61;61.36;100656.97;5055362;28;20410;-63
2021/06/01 00:19:40;;;;;;;4.95;3.92;;;;;;;12.57;61.31;100656.78;5056061;28;20060;-63
2021/06/01 00:22:06;;;;;;;5.50;3.13;;;;;;;12.58;61.26;100659.25;5055625;28;20068;-63
2021/06/01 00:24:34;;;;;;;6.40;3.20;;;;;;;12.52;61.63;100659.72;5051859;28;20056;-63
2021/06/01 00:27:01;;;;;;;5.00;3.20;;;;;;;12.53;61.00;100656.59;5053290;28;20409;-63
2021/06/01 00:29:29;;;;;;;5.20;3.72;;;;;;;12.48;61.31;100659.53;5055264;28;20053;-63
2021/06/01 00:31:56;;;;;;;4.57;3.42;;;;;;;12.47;60.93;100657.88;5055316;28;20061;-62
2021/06/01 00:34:23;;;;;;;5.32;3.20;;;;;;;12.41;61.53;100655.56;5055703;28;20053;-63
2021/06/01 00:36:50;;;;;;;4.38;3.38;;;;;;;12.39;61.44;100658.69;5055321;28;20508;-63
2021/06/01 00:39:16;;;;;;;7.25;3.88;;;;;;;12.36;61.53;100648.97;5055741;28;20052;-63
2021/06/01 00:41:43;;;;;;;6.22;3.97;;;;;;;12.30;61.65;100657.81;5054213;28;20055;-63
2021/06/01 00:44:10;;;;;;;5.57;3.95;;;;;;;12.27;61.75;100656.50;5055290;28;20115;-63
2021/06/01 00:46:39;;;;;;;5.80;3.78;;;;;;;12.22;61.99;100647.41;5054979;28;20140;-63
2021/06/01 00:49:05;;;;;;;6.28;3.88;;;;;;;12.22;61.95;100655.81;5055073;28;20049;-63
2021/06/01 00:51:32;;;;;;;6.43;3.95;;;;;;;12.22;61.78;100659.44;5054810;28;20060;-63
2021/06/01 00:54:01;;;;;;;8.38;4.43;;;;;;;12.17;62.19;100656.78;5053943;28;20051;-63
2021/06/01 00:56:30;;;;;;;5.13;3.63;;;;;;;12.11;62.31;100655.25;5055272;28;20379;-63
2021/06/01 00:58:58;;;;;;;5.15;3.55;;;;;;;12.05;62.39;100657.34;5054566;28;20063;-63
2021/06/01 01:01:24;;;;;;;5.63;4.05;;;;;;;12.01;62.83;100649.94;5054955;28;20072;-63
2021/06/01 01:03:54;;;;;;;5.55;3.67;;;;;;;11.98;62.96;100654.19;5054658;28;20390;-63
2021/06/01 01:06:47;;;;;;;4.38;3.55;;;;;;;11.95;62.70;100643.69;5054955;28;20068;-63
2021/06/01 01:09:16;;;;;;;6.05;3.90;;;;;;;11.90;63.05;100652.19;5054593;28;20049;-63
2021/06/01 01:11:55;;;;;;;6.72;4.70;;;;;;;11.89;62.86;100653.34;5054773;28;20049;-63
2021/06/01 01:14:26;;;;;;;5.72;3.72;;;;;;;11.87;62.87;100655.59;5054593;28;20053;-63
2021/06/01 01:16:59;;;;;;;7.20;4.18;;;;;;;11.86;63.22;100653.94;5054103;28;20067;-63
2021/06/01 01:19:46;;;;;;;5.80;3.60;;;;;;;11.83;62.69;100649.00;5055052;28;20474;-63
2021/06/01 01:22:14;;;;;;;6.00;3.95;;;;;;;11.78;62.63;100653.56;5054631;28;20071;-63
2021/06/01 01:24:50;;;;;;;5.35;3.85;;;;;;;11.73;62.92;100652.88;5052113;28;20057;-63
2021/06/01 01:27:24;;;;;;;6.22;4.00;;;;;;;11.67;63.43;100657.75;5053950;28;20049;-63
2021/06/01 01:29:53;;;;;;;6.22;3.45;;;;;;;11.57;63.52;100658.00;5054767;28;20411;-63
2021/06/01 01:32:28;;;;;;;5.72;3.97;;;;;;;11.55;63.81;100654.72;5054517;28;20426;-63
2021/06/01 01:34:58;;;;;;;6.45;4.75;;;;;;;11.58;63.49;100656.88;5054673;28;20049;-63
2021/06/01 01:37:27;;;;;;;7.05;4.00;;;;;;;11.57;63.22;100658.84;5054300;28;20049;-63
2021/06/01 01:39:59;;;;;;;5.78;3.80;;;;;;;11.50;63.14;100657.63;5054178;28;20053;-63
2021/06/01 01:42:29;;;;;;;5.00;3.53;;;;;;;11.44;63.28;100661.66;5039094;28;20391;-63
2021/06/01 01:44:58;;;;;;;7.53;4.30;;;;;;;11.33;63.81;100653.53;5038755;28;20060;-63
2021/06/01 01:50:13;;;;;;;8.43;4.15;;;;;;;11.24;64.91;100660.19;5054487;28;20421;-63
2021/06/01 01:52:41;;;;;;;5.97;3.95;;;;;;;11.20;64.88;100665.56;5053932;28;20057;-63
2021/06/01 01:55:11;;;;;;;6.65;4.55;;;;;;;11.15;65.06;100658.16;5054199;28;20049;-63
2021/06/01 01:57:41;;;;;;;;;;;;;;;11.04;65.35;100655.91;5054032;28;20049;-63
2021/06/01 02:00:10;;;;;;;5.93;4.50;;;;;;;11.05;64.89;100654.78;5053552;28;19928;-63
2021/06/01 02:02:38;;;;;;;4.97;4.07;;;;;;;11.04;64.64;100645.56;5053627;28;20059;-63
2021/06/01 02:05:06;;;;;;;5.68;4.07;;;;;;;11.03;64.87;100654.25;5053901;28;20052;-62
2021/06/01 02:07:35;;;;;;;5.07;4.15;;;;;;;11.04;64.73;100650.31;5053614;28;20056;-63
2021/06/01 02:10:06;;;;;;;6.05;4.63;;;;;;;10.97;65.22;100659.13;5034988;28;20053;-63
2021/06/01 02:12:33;;;;;;;6.45;4.38;;;;;;;10.92;65.31;100651.69;5033618;28;20053;-63
2021/06/01 02:15:00;;;;;;;5.10;4.18;;;;;;;10.92;64.85;100651.69;5043885;28;20042;-63
2021/06/01 02:17:27;;;;;;;7.43;4.30;;;;;;;10.90;65.05;100647.59;5053758;28;20063;-62
2021/06/01 02:19:54;;;;;;;6.97;4.90;;;;;;;10.87;64.91;100651.78;5053581;28;20057;-63
2021/06/01 02:23:46;;;;;;;5.22;3.90;;;;;;;10.85;65.05;100654.06;5053339;28;20053;-63
2021/06/01 02:25:31;;;;;;;6.93;4.53;;;;;;;10.79;65.29;100646.94;5051161;28;20064;-62
2021/06/01 02:28:02;;;;;;;4.90;3.70;;;;;;;10.79;65.12;100646.94;5051658;28;20490;-62
2021/06/01 02:30:36;;;;;;;6.18;4.22;;;;;;;10.74;65.18;100647.91;5053244;28;20049;-63
2021/06/01 02:33:06;;;;;;;6.45;4.22;;;;;;;10.72;65.12;100652.94;5053007;28;20060;-63
2021/06/01 02:35:38;;;;;;;5.13;4.32;;;;;;;10.63;65.33;100651.22;5052926;28;20071;-63
2021/06/01 02:38:09;;;;;;;6.68;4.18;;;;;;;10.60;65.38;100649.03;5053531;28;20053;-63
2021/06/01 02:40:41;;;;;;;6.00;4.22;;;;;;;10.59;65.40;100648.22;5052876;28;20052;-62
2021/06/01 02:43:11;;;;;;;7.45;4.10;;;;;;;10.55;65.21;100655.53;5052291;28;20063;-62
2021/06/01 02:45:39;;;;;;;5.13;4.05;;;;;;;10.55;65.30;100647.19;5052855;28;20052;-63
2021/06/01 02:48:08;;;;;;;5.85;4.22;;;;;;;10.49;65.84;100638.09;5053317;28;20434;-63
2021/06/01 02:50:35;;;;;;;7.43;4.18;;;;;;;10.44;65.74;100638.22;5052873;28;20068;-62
2021/06/01 02:53:06;;;;;;;7.55;4.35;;;;;;;10.37;66.34;100637.78;5052983;28;20482;-62
2021/06/01 02:55:35;;;;;;;7.20;4.38;;;;;;;10.36;66.27;100630.59;5051601;28;20053;-62
2021/06/01 02:58:06;;;;;;;8.48;4.50;;;;;;;10.32;67.04;100629.56;5052479;28;20064;-63
2021/06/01 03:00:35;;;;;;;7.07;4.80;;;;;;;10.30;66.63;100629.03;5052485;28;20132;-63
2021/06/01 03:03:05;;;;;;;7.85;4.90;;;;;;;10.40;66.06;100636.38;5052849;28;20509;-63
2021/06/01 03:05:33;;;;;;;6.20;4.10;;;;;;;10.38;65.35;100625.53;5052824;28;20056;-62
2021/06/01 03:08:21;;;;;;;5.68;4.10;;;;;;;10.33;65.96;100620.91;5052913;28;20478;-62
2021/06/01 03:10:48;;;;;;;6.32;4.45;;;;;;;10.26;66.57;100627.97;5032615;28;20140;-63
2021/06/01 03:13:16;;;;;;;5.95;4.55;;;;;;;10.28;66.60;100628.50;5032609;28;20061;-63
2021/06/01 03:15:43;;;;;;;7.55;4.65;;;;;;;10.20;66.45;100627.25;5032716;28;20430;-63
2021/06/01 03:18:10;;;;;;;7.05;4.60;;;;;;;10.15;67.26;100625.38;5032751;28;20494;-62
2021/06/01 03:20:37;;;;;;;4.88;4.10;;;;;;;10.14;67.06;100623.75;5032890;28;20383;-63
2021/06/01 03:23:04;;;;;;;7.93;4.85;;;;;;;10.12;66.75;100614.03;5033758;28;20049;-63
2021/06/01 03:25:31;;;;;;;6.13;4.88;;;;;;;10.14;66.95;100614.56;5051484;28;20048;-62
2021/06/01 03:27:58;;;;;;;8.85;4.68;;;;;;;10.21;67.57;100623.34;5052329;28;20060;-61
2021/06/01 03:30:28;;;;;;;5.50;4.25;;;;;;;10.28;67.04;100620.13;5052387;28;20049;-64
2021/06/01 03:32:55;;;;;;;7.05;4.38;;;;;;;10.28;66.93;100620.97;5052475;28;20053;-64
2021/06/01 03:35:25;;;;;;;5.93;4.38;;;;;;;10.28;66.44;100623.75;5052328;28;20049;-63
2021/06/01 03:37:53;;;;;;;6.07;4.13;;;;;;;10.34;66.11;100616.97;5051525;28;20068;-64
2021/06/01 03:40:21;;;;;;;6.65;4.70;;;;;;;10.28;65.77;100617.34;5053577;28;20068;-64
2021/06/01 03:42:48;;;;;;;6.70;5.03;;;;;;;10.24;65.46;100616.31;5055982;28;20493;-63
2021/06/01 03:45:15;;;;;;;9.20;4.88;;;;;;;10.25;65.98;100623.56;5056357;28;20068;-64
2021/06/01 03:47:43;;;;;;;5.40;4.30;;;;;;;10.25;65.94;100613.25;5056316;28;20049;-64
2021/06/01 03:50:11;;;;;;;5.15;4.20;;;;;;;10.27;66.48;100626.84;5056018;28;20057;-64
2021/06/01 03:52:38;;;;;;;5.97;4.20;;;;;;;10.27;66.33;100626.84;5055974;28;20409;-63
2021/06/01 03:55:09;;;;;;;5.30;4.15;;;;;;;10.26;66.63;100614.06;5055751;28;20049;-63
2021/06/01 03:57:36;;;;;;;6.10;4.28;;;;;;;10.29;66.33;100628.22;5054546;28;20044;-63
2021/06/01 04:00:05;;;;;;;6.32;4.63;;;;;;;10.36;65.91;100622.22;5056279;28;20398;-63
2021/06/01 04:02:32;;;;;;;6.47;4.30;;;;;;;10.36;65.26;100625.84;5056029;28;20053;-63
2021/06/01 04:05:00;;;;;;;6.28;4.47;;;;;;;10.37;65.28;100615.53;5056232;28;20481;-63
2021/06/01 04:07:27;;;;;;;4.82;4.20;;;;;;;10.30;66.12;100618.72;5056092;28;20049;-63
2021/06/01 04:09:53;;;;;;;6.30;4.60;;;;;;;10.33;66.26;100626.47;5056468;28;20045;-63
2021/06/01 04:12:20;;;;;;;5.80;4.30;;;;;;;10.40;66.26;100626.06;5054986;28;20052;-63
2021/06/01 04:14:47;;;;;;;5.75;4.63;;;;;;;10.44;66.31;100621.53;5048418;28;20049;-63
2021/06/01 04:17:14;;;;;;;6.07;4.40;;;;;;;10.47;65.88;100629.25;5035721;28;20065;-63
2021/06/01 04:19:41;;;;;;;6.57;4.68;;;;;;;10.52;66.26;100623.56;5044942;28;20049;-63
2021/06/01 04:22:10;;;;;;;7.20;4.80;;;;;;;10.54;66.26;100628.81;5055887;28;20057;-63
2021/06/01 04:24:39;;;;;;;6.47;4.53;;;;;;;10.64;65.97;100633.34;5054940;28;20049;-63
2021/06/01 04:27:10;;;;;;;5.53;4.45;;;;;;;10.67;65.82;100622.44;5055275;28;20056;-63
2021/06/01 04:29:36;;;;;;;7.13;5.47;;;;;;;10.72;66.07;100627.88;5050291;28;20046;-63
2021/06/01 04:32:04;;;;;;;5.97;4.78;;;;;;;10.78;65.66;100623.03;5054248;28;20056;-63
2021/06/01 04:34:31;;;;;;;6.35;4.40;;;;;;;10.82;66.25;100626.84;5050532;28;20061;-63
2021/06/01 04:37:00;;;;;;;6.03;4.28;;;;;;;10.88;65.88;100625.59;5053897;28;20060;-63
2021/06/01 04:39:29;;;;;;;8.88;5.00;;;;;;;10.97;65.52;100628.47;5034983;28;20060;-63
2021/06/01 04:41:56;;;;;;;5.75;4.47;;;;;;;11.00;65.75;100627.81;5047321;28;20405;-63
2021/06/01 04:44:23;;;;;;;5.80;4.72;;;;;;;11.06;66.07;100625.75;5035194;28;20492;-63
2021/06/01 04:46:51;;;;;;;8.68;4.65;;;;;;;11.12;65.64;100632.84;5044757;28;20053;-63
2021/06/01 04:49:17;;;;;;;6.15;4.10;;;;;;;11.22;65.85;100629.00;5051748;28;20736;-63
2021/06/01 04:51:44;;;;;;;6.85;4.78;;;;;;;11.25;65.86;100629.19;5045936;28;20064;-63
2021/06/01 04:54:11;;;;;;;5.85;4.63;;;;;;;11.37;65.34;100631.44;5047707;28;20398;-63
2021/06/01 04:56:40;;;;;;;5.88;4.45;;;;;;;11.49;64.76;100622.50;5053836;28;20056;-63
2021/06/01 04:59:06;;;;;;;6.18;3.95;;;;;;;11.55;64.83;100622.06;5044217;28;20049;-63
2021/06/01 05:01:33;;;;;;;7.10;4.40;;;;;;;11.67;65.13;100623.44;5050920;28;20049;-63
2021/06/01 05:04:00;;;;;;;6.88;4.93;;;;;;;11.82;64.62;100625.81;5052422;28;20487;-63
2021/06/01 05:06:28;;;;;;;6.93;5.10;;;;;;;11.94;65.06;100639.22;5054754;28;20410;-63
2021/06/01 05:08:55;;;;;;;6.72;4.47;;;;;;;12.08;64.40;100626.00;5054582;28;20107;-63
2021/06/01 05:11:22;;;;;;;6.95;4.65;;;;;;;12.23;64.62;100621.16;5054588;28;20057;-63
2021/06/01 05:13:50;;;;;;;6.68;4.43;;;;;;;12.37;64.22;100619.91;5048648;28;20053;-63
2021/06/01 05:16:17;;;;;;;7.25;4.70;;;;;;;12.53;64.06;100614.69;5051999;28;20085;-63
2021/06/01 05:18:44;;;;;;;7.10;5.00;;;;;;;12.61;63.66;100629.00;5053456;28;20048;-63
2021/06/01 05:21:11;;;;;;;7.75;5.00;;;;;;;12.75;63.49;100621.34;5053915;28;20048;-63
2021/06/01 05:23:37;;;;;;;8.98;4.80;;;;;;;12.91;63.11;100622.50;5054373;28;20481;-63
2021/06/01 05:26:05;;;;;;;6.75;4.70;;;;;;;13.05;62.04;100619.56;5052845;28;20044;-63
2021/06/01 05:28:34;;;;;;;6.50;4.60;;;;;;;13.14;62.06;100613.97;5047635;28;20053;-64
2021/06/01 05:31:11;;;;;;;6.38;5.00;;;;;;;13.18;61.44;100623.34;5042613;28;20388;-64
2021/06/01 05:33:39;;;;;;;8.38;5.10;;;;;;;13.37;61.02;100617.44;5054092;28;20493;-64
2021/06/01 05:36:06;;;;;;;8.18;4.70;;;;;;;13.43;60.42;100609.72;5045276;28;20509;-64
2021/06/01 05:38:33;;;;;;;8.18;4.90;;;;;;;13.44;60.72;100611.34;5037674;28;20048;-63
2021/06/01 05:41:01;;;;;;;6.22;4.88;;;;;;;13.52;60.37;100610.53;5053183;28;20068;-64
2021/06/01 05:43:29;;;;;;;8.48;4.72;;;;;;;13.65;60.58;100608.69;5054219;28;20049;-63
2021/06/01 05:45:56;;;;;;;5.80;4.50;;;;;;;13.76;60.63;100608.03;5054194;28;20049;-64
2021/06/01 05:48:24;;;;;;;7.70;4.90;;;;;;;13.87;60.37;100596.47;5053089;28;20049;-63
2021/06/01 05:50:51;;;;;;;7.63;5.20;;;;;;;13.88;60.63;100603.69;5041190;28;20080;-64
2021/06/01 05:53:20;;;;;;;8.30;5.30;;;;;;;13.96;60.81;100605.66;5053536;28;20053;-64
2021/06/01 05:55:47;;;;;;;8.95;5.25;;;;;;;14.05;61.14;100609.28;5049193;28;20053;-64
2021/06/01 05:58:14;;;;;;;8.60;5.25;;;;;;;14.12;60.98;100598.34;5052731;28;20052;-64
2021/06/01 06:00:43;;;;;;;7.88;5.00;;;;;;;14.18;60.94;100601.81;5053691;28;20508;-64
2021/06/01 06:03:11;;;;;;;7.20;5.35;;;;;;;14.25;60.54;100595.69;5053674;28;20076;-65
2021/06/01 06:05:39;;;;;;;8.10;5.60;;;;;;;14.34;61.34;100602.06;5052250;28;20060;-64
2021/06/01 06:08:07;;;;;;;10.57;6.13;;;;;;;14.41;61.19;100600.38;5053320;28;20049;-63
2021/06/01 06:10:34;;;;;;;7.03;5.57;;;;;;;14.47;60.96;100601.03;5053621;28;20049;-64
2021/06/01 06:13:01;;;;;;;8.90;6.10;;;;;;;14.69;60.46;100604.72;5053181;28;20065;-64
2021/06/01 06:15:28;;;;;;;10.00;6.20;;;;;;;14.87;60.28;100600.66;5053855;28;20053;-63
2021/06/01 06:18:01;;;;;;;7.43;5.43;;;;;;;14.98;60.24;100610.28;5053549;28;20397;-63
2021/06/01 06:20:29;;;;;;;8.73;5.75;;;;;;;15.09;59.84;100613.50;5052745;28;20482;-64
2021/06/01 06:22:57;;;;;;;7.70;5.30;;;;;;;15.13;60.20;100602.44;5053554;28;20060;-64
2021/06/01 06:25:25;;;;;;;9.27;5.68;;;;;;;15.23;60.37;100605.63;5051627;28;20490;-64
2021/06/01 06:27:52;;;;;;;9.77;5.35;;;;;;;15.38;60.87;100609.81;5053336;28;20064;-64
2021/06/01 06:30:19;;;;;;;6.07;5.32;;;;;;;15.53;60.64;100607.53;5052891;28;20060;-63
2021/06/01 06:32:46;;;;;;;8.05;4.93;;;;;;;15.53;61.07;100610.34;5052891;28;20075;-65
2021/06/01 06:35:13;;;;;;;6.78;4.93;;;;;;;15.59;61.36;100603.34;5052840;28;20057;-64
2021/06/01 06:37:40;;;;;;;7.78;5.43;;;;;;;15.70;61.48;100598.13;5050782;28;20052;-64
2021/06/01 06:40:10;;;;;;;10.88;6.38;;;;;;;15.87;61.60;100603.56;5052484;28;20040;-63
2021/06/01 06:42:38;;;;;;;7.18;4.80;;;;;;;16.05;61.01;100597.78;5052630;28;20045;-65
2021/06/01 06:45:07;;;;;;;7.53;5.43;;;;;;;16.21;60.62;100599.56;5037340;28;20049;-64
2021/06/01 06:47:56;;;;;;;6.60;5.00;;;;;;;16.30;60.63;100599.44;5037263;28;20422;-64
2021/06/01 06:50:24;;;;;;;5.40;4.88;;;;;;;16.50;60.57;100597.69;5021709;28;20053;-64
2021/06/01 06:52:51;;;;;;;6.45;5.40;;;;;;;16.70;59.97;100597.91;5037650;28;20079;-64
2021/06/01 06:55:20;;;;;;;7.82;4.70;;;;;;;16.77;59.91;100593.31;5012632;28;20053;-63
2021/06/01 06:57:47;;;;;;;7.28;4.80;;;;;;;16.93;59.96;100596.28;5019818;28;20521;-64
2021/06/01 07:00:16;;;;;;;8.27;5.60;;;;;;;17.13;60.38;100593.63;5030317;28;20068;-65
2021/06/01 07:02:43;;;;;;;7.20;4.88;;;;;;;17.23;59.92;100595.97;5032942;28;20049;-64
2021/06/01 07:05:13;;;;;;;6.22;4.53;;;;;;;17.40;59.16;100590.03;5045972;28;20060;-65
2021/06/01 07:07:40;;;;;;;7.30;4.35;;;;;;;17.47;57.92;100591.41;5034581;28;20053;-64
2021/06/01 07:10:10;;;;;;;7.65;4.10;;;;;;;17.66;57.33;100591.56;5045414;28;20053;-64
2021/06/01 07:12:40;;;;;;;6.82;4.05;;;;;;;17.85;57.07;100586.09;5026579;28;20053;-65
2021/06/01 07:15:12;;;;;;;5.53;4.00;;;;;;;18.02;56.16;100579.28;5042054;28;20056;-64
2021/06/01 07:17:43;;;;;;;5.38;3.83;;;;;;;18.16;56.64;100576.00;5034529;28;20064;-64
2021/06/01 07:20:12;;;;;;;5.63;3.55;;;;;;;18.33;55.97;100579.66;5037896;28;20517;-64
2021/06/01 07:22:39;;;;;;;7.10;3.40;;;;;;;18.50;54.64;100572.81;5028570;28;20068;-65
2021/06/01 07:25:08;;;;;;;6.50;3.40;;;;;;;18.58;54.35;100575.47;5037466;28;20053;-63
2021/06/01 07:27:35;;;;;;;5.60;3.55;;;;;;;18.77;53.27;100571.88;5022403;28;20057;-65
2021/06/01 07:30:04;;;;;;;6.50;4.15;;;;;;;19.01;52.53;100573.63;5024640;28;20053;-64
2021/06/01 07:32:31;;;;;;;5.35;3.63;;;;;;;19.18;51.02;100580.06;5024334;28;20068;-64
2021/06/01 07:34:59;;;;;;;3.50;3.10;;;;;;;19.42;51.51;100571.28;5028995;28;20050;-64
2021/06/01 07:37:26;;;;;;;4.53;3.15;;;;;;;19.55;49.87;100565.47;5027442;28;20062;-63
2021/06/01 07:39:53;;;;;;;4.97;3.10;;;;;;;19.67;49.92;100570.94;5030090;28;20053;-64
2021/06/01 07:42:20;;;;;;;3.85;2.40;;;;;;;19.83;42.42;100571.69;5025010;28;20049;-64
2021/06/01 07:44:47;;;;;;;3.70;2.20;;;;;;;20.00;39.66;100578.06;5016551;28;20056;-64
2021/06/01 07:47:17;;;;;;;4.05;2.05;;;;;;;20.41;38.22;100567.88;5036160;28;20065;-64
2021/06/01 07:49:44;;;;;;;2.67;2.35;;;;;;;21.60;33.73;100561.03;5032106;28;20060;-65
2021/06/01 07:52:11;;;;;;;2.97;2.13;;;;;;;22.87;30.28;100561.78;5038625;28;20406;-64
2021/06/01 07:54:38;;;;;;;2.65;2.10;;;;;;;23.88;28.85;100566.69;5045352;28;20055;-64
2021/06/01 07:57:05;;;;;;;2.45;2.13;;;;;;;24.66;27.69;100556.56;5041273;28;20045;-65
2021/06/01 07:59:32;;;;;;;3.70;2.03;;;;;;;25.58;27.59;100553.03;5026779;28;20060;-65
2021/06/01 08:01:59;;;;;;;2.85;2.25;;;;;;;26.60;26.52;100558.41;5045053;28;20053;-65
2021/06/01 08:04:27;;;;;;;2.50;1.80;;;;;;;27.25;23.20;100546.31;5044155;28;20057;-65
2021/06/01 08:06:54;;;;;;;2.42;2.13;;;;;;;28.18;22.61;100553.59;5043258;28;20500;-65
2021/06/01 08:09:21;;;;;;;2.95;2.17;;;;;;;29.11;20.67;100546.22;5039283;28;20048;-65
2021/06/01 08:11:48;;;;;;;2.53;2.00;;;;;;;29.98;20.03;100547.22;5034157;28;20477;-65
2021/06/01 08:14:15;;;;;;;3.28;2.38;;;;;;;30.36;19.23;100547.50;5036207;28;20060;-65
2021/06/01 08:16:45;;;;;;;3.55;2.28;;;;;;;30.76;20.24;100544.41;5042371;28;20479;-65
2021/06/01 08:19:14;;;;;;;3.00;2.20;;;;;;;31.41;18.51;100539.72;5048644;28;20056;-65
2021/06/01 08:21:50;;;;;;;3.65;2.40;;;;;;;31.96;17.89;100540.47;5035229;28;20403;-66
2021/06/01 08:24:17;;;;;;;3.67;1.90;;;;;;;32.85;15.94;100536.66;5045465;28;20060;-66
2021/06/01 08:26:45;;;;;;;2.90;2.13;;;;;;;33.50;15.30;100537.97;5039042;28;20051;-66
2021/06/01 08:29:13;;;;;;;3.22;1.92;;;;;;;34.35;15.51;100529.19;5040413;28;20056;-63
2021/06/01 08:31:40;;;;;;;2.22;1.90;;;;;;;34.97;14.72;100526.03;5039793;28;20053;-65
2021/06/01 08:34:10;;;;;;;2.92;1.80;;;;;;;35.57;12.99;100512.94;5050739;28;20509;-65
2021/06/01 08:36:37;;;;;;;2.20;2.00;;;;;;;36.25;12.63;100513.81;5041773;28;20060;-65
2021/06/01 08:39:09;;;;;;;2.80;1.88;;;;;;;36.28;11.87;100507.78;5047927;28;20440;-65
2021/06/01 08:41:38;;;;;;;2.22;2.03;;;;;;;36.47;11.61;100510.56;5053815;28;20048;-65
2021/06/01 08:44:05;;;;;;;;;;;;;;;36.95;12.62;100501.81;5054291;28;20421;-65
2021/06/01 08:46:36;;;;;;;3.20;1.80;;;;;;;37.90;11.86;100501.94;5054576;28;19925;-65
2021/06/01 08:49:03;;;;;;;3.03;1.80;;;;;;;38.41;11.28;100499.75;5054562;28;20053;-65
2021/06/01 08:51:30;;;;;;;2.35;1.92;;;;;;;39.12;10.84;100501.19;5053603;28;20068;-65
2021/06/01 08:53:58;;;;;;;3.28;2.22;;;;;;;39.64;10.71;100499.56;5053062;28;20052;-65
2021/06/01 08:56:26;;;;;;;;;;;;;;;39.93;11.10;100504.31;5044450;28;20061;-65
2021/06/01 08:58:53;;;;;;;9.50;3.15;;;;;;;40.62;10.60;100498.34;5055285;28;19957;-66
2021/06/01 09:01:21;;;;;;;2.58;2.00;;;;;;;40.92;10.00;100498.72;5054212;28;20500;-66
2021/06/01 09:03:52;;;;;;;2.33;2.05;;;;;;;41.04;10.13;100493.69;5053140;28;20057;-64
2021/06/01 09:06:22;;;;;;;2.67;2.00;;;;;;;41.77;10.06;100495.91;5050248;28;20053;-65
2021/06/01 09:11:49;;;;;;;3.33;1.90;;;;;;;42.64;10.56;100502.63;5025799;28;20061;-64
2021/06/01 09:14:35;;;;;;;2.30;2.00;;;;;;;43.33;8.14;100498.78;5050528;28;20064;-64
2021/06/01 09:22:33;;;;;;;2.97;2.00;;;;;;;43.98;7.48;100493.41;5043334;28;20057;-64
2021/06/01 09:25:03;;;;;;;2.28;2.05;;;;;;;44.17;7.23;100482.53;5047374;28;20397;-66
2021/06/01 09:27:41;;;;;;;2.38;1.88;;;;;;;44.16;7.89;100486.00;5049765;28;20060;-64
2021/06/01 09:30:11;;;;;;;2.30;2.10;;;;;;;45.06;7.67;100487.78;5032102;28;20053;-66
2021/06/01 09:32:44;;;;;;;2.92;2.13;;;;;;;45.51;6.54;100487.09;5036927;28;20053;-64
2021/06/01 09:35:12;;;;;;;2.30;1.90;;;;;;;46.06;6.72;100474.88;5048244;28;20049;-64
2021/06/01 09:37:40;;;;;;;2.67;2.20;;;;;;;45.83;7.35;100468.63;5034537;28;20057;-64
2021/06/01 09:40:14;;;;;;;2.10;1.90;;;;;;;46.51;5.20;100473.19;5037943;28;20056;-64
2021/06/01 09:42:46;;;;;;;2.00;1.80;;;;;;;46.50;5.38;100457.66;5041013;28;20053;-65
2021/06/01 09:45:16;;;;;;;2.67;2.00;;;;;;;46.44;6.01;100457.00;5032387;28;20049;-65
2021/06/01 09:47:48;;;;;;;2.78;1.90;;;;;;;46.16;5.92;100460.47;5047885;28;20052;-64
2021/06/01 09:50:25;;;;;;;3.80;1.90;;;;;;;46.59;5.81;100453.44;5046410;28;20429;-65
2021/06/01 09:52:55;;;;;;;2.45;1.90;;;;;;;46.29;4.90;100456.75;5049376;28;20053;-64
2021/06/01 09:55:30;;;;;;;1.95;1.85;;;;;;;45.89;5.26;100448.69;5051353;28;20065;-64
2021/06/01 09:57:59;;;;;;;2.30;2.10;;;;;;;46.07;5.84;100452.91;5047033;28;20151;-64
2021/06/01 10:00:28;;;;;;;4.07;1.80;;;;;;;47.05;5.23;100453.22;5044530;28;20064;-65
2021/06/01 10:02:57;;;;;;;4.20;2.35;;;;;;;47.33;5.60;100455.47;5046303;28;20049;-64
2021/06/01 10:05:26;;;;;;;2.45;2.25;;;;;;;48.13;5.35;100455.72;5031920;28;20478;-64
2021/06/01 10:07:55;;;;;;;2.65;2.10;;;;;;;48.81;5.32;100455.88;5049657;28;20075;-65
2021/06/01 10:10:24;;;;;;;2.90;2.03;;;;;;;49.24;4.11;100449.09;5048780;28;20049;-65
2021/06/01 10:12:55;;;;;;;2.00;1.80;;;;;;;49.80;3.81;100437.50;5046338;28;20056;-64
2021/06/01 10:15:27;;;;;;;3.58;1.90;;;;;;;48.99;4.01;100437.03;5031628;28;20065;-64
2021/06/01 10:17:55;;;;;;;3.65;1.90;;;;;;;49.80;3.93;100437.50;5037058;28;20060;-64
2021/06/01 10:20:27;;;;;;;2.42;1.90;;;;;;;50.05;3.95;100425.00;5046417;28;20057;-65
2021/06/01 10:22:55;;;;;;;2.00;1.80;;;;;;;49.21;3.99;100425.81;5042494;28;20060;-65
2021/06/01 10:25:22;;;;;;;13.88;2.50;;;;;;;48.27;4.13;100432.78;5041371;28;20068;-65
2021/06/01 10:27:51;;;;;;;2.75;1.80;;;;;;;48.01;4.30;100421.19;5048953;28;20060;-65
2021/06/01 10:30:18;;;;;;;5.60;2.05;;;;;;;48.60;4.61;100409.47;5048750;28;20088;-65
2021/06/01 10:32:51;;;;;;;2.72;1.90;;;;;;;48.60;4.70;100405.72;5049534;28;20099;-65
2021/06/01 10:35:21;;;;;;;2.50;2.00;;;;;;;49.40;4.41;100417.38;5049401;28;20056;-65
2021/06/01 10:52:13;;;;;;;3.53;2.00;;;;;;;47.61;4.10;100407.53;5049020;28;20056;-65
2021/06/01 10:54:53;;;;;;;2.20;2.00;;;;;;;48.84;4.81;100401.47;5048184;28;20547;-65
2021/06/01 10:57:21;;;;;;;2.55;2.00;;;;;;;49.34;3.76;100390.09;5046858;28;20045;-65
2021/06/01 11:01:50;;;;;;;2.63;2.10;;;;;;;49.76;4.38;100392.69;5049220;28;20057;-65
2021/06/01 11:03:05;;;;;;;2.92;2.10;;;;;;;49.80;4.90;100384.19;5044791;28;20068;-65
2021/06/01 11:06:00;;;;;;;2.63;2.20;;;;;;;49.77;4.80;100382.38;5047013;28;20056;-65
2021/06/01 11:08:38;;;;;;;2.53;2.33;;;;;;;50.05;5.94;100389.44;5038313;28;20056;-65
2021/06/01 11:11:33;;;;;;;2.70;2.15;;;;;;;50.27;4.85;100382.63;5050720;28;20049;-66
2021/06/01 11:14:02;;;;;;;2.67;2.22;;;;;;;50.54;4.89;100388.06;5036241;28;20057;-65
2021/06/01 11:17:01;;;;;;;2.78;1.92;;;;;;;50.20;5.18;100380.50;5041570;28;20056;-65
2021/06/01 11:19:47;;;;;;;2.60;2.08;;;;;;;50.52;5.30;100379.00;5043186;28;20076;-65
2021/06/01 11:22:24;;;;;;;3.20;2.50;;;;;;;50.25;4.67;100382.44;5043144;28;20061;-65
2021/06/01 11:28:54;;;;;;;2.75;2.28;;;;;;;50.31;5.21;100382.25;5045774;28;20060;-65
2021/06/01 11:33:42;;;;;;;5.43;2.20;;;;;;;49.95;5.30;100371.50;5048042;28;20503;-65
2021/06/01 11:36:11;;;;;;;3.08;1.92;;;;;;;50.01;5.38;100372.06;5035316;28;20509;-65
2021/06/01 11:38:46;;;;;;;3.35;1.98;;;;;;;50.13;5.73;100360.56;5042270;28;20497;-65
2021/06/01 11:43:52;;;;;;;5.20;2.25;;;;;;;49.79;5.66;100361.84;5051003;28;20049;-65
2021/06/01 11:46:29;;;;;;;3.10;2.28;;;;;;;49.84;5.83;100357.13;5048087;28;20068;-65
2021/06/01 11:51:43;;;;;;;4.18;2.25;;;;;;;49.54;5.84;100353.63;5030327;28;20060;-66
2021/06/01 11:54:13;;;;;;;;;;;;;;;49.02;6.19;100347.13;5038905;28;20061;-65
2021/06/01 11:56:57;;;;;;;4.32;2.50;;;;;;;48.75;6.30;100341.53;5042141;28;19943;-65
2021/06/01 12:02:21;;;;;;;3.22;1.90;;;;;;;48.23;6.66;100337.81;5038332;28;20079;-65
2021/06/01 12:05:04;;;;;;;3.30;2.05;;;;;;;48.12;6.39;100341.91;5045922;28;20064;-65
2021/06/01 12:18:54;;;;;;;4.30;2.20;;;;;;;46.25;7.97;100335.53;5050336;28;20068;-65
2021/06/01 12:21:22;;;;;;;4.05;2.30;;;;;;;45.96;7.30;100330.25;5044886;28;20402;-65
2021/06/01 12:23:52;;;;;;;2.67;2.05;;;;;;;45.43;8.08;100324.38;5046956;28;20136;-65
2021/06/01 12:26:24;;;;;;;2.42;1.92;;;;;;;45.30;7.94;100333.97;5051209;28;20057;-65
2021/06/01 12:31:57;;;;;;;3.08;2.13;;;;;;;44.77;8.00;100322.81;5051848;28;20063;-65